Time;durP1;ratioP1;P1;durP2;ratioP2;P2;SDS_P1;SDS_P2;PMS_P1;PMS_P2;Temp;Humidity;BMP_temperature;BMP_pressure;BME280_temperature;BME280_humidity;BME280_pressure;Samples;Min_cycle;Max_cycle;Signal;HPM_P1;HPM_P2
2022/05/26 00:01:40;;;;;;;38.72;35.38;;;;;;;16.26;100.00;101045.34;4993394;28;20055;-82
2022/05/26 00:04:10;;;;;;;39.10;35.30;;;;;;;16.65;100.00;101039.44;4996276;28;20050;-82
2022/05/26 00:06:40;;;;;;;38.92;35.25;;;;;;;16.75;100.00;101034.25;4995815;28;20499;-82
2022/05/26 00:09:09;;;;;;;39.05;35.50;;;;;;;16.88;100.00;101025.13;4996236;28;20046;-84
2022/05/26 00:11:39;;;;;;;38.05;34.38;;;;;;;16.61;100.00;101017.66;4995477;28;20050;-83
2022/05/26 00:14:10;;;;;;;37.90;34.35;;;;;;;16.76;100.00;101014.44;4995341;28;20057;-82
2022/05/26 00:16:50;;;;;;;40.97;37.25;;;;;;;16.65;100.00;101017.97;4996247;28;20061;-83
2022/05/26 00:19:21;;;;;;;37.58;34.28;;;;;;;16.45;100.00;101018.38;4993097;28;20053;-84
2022/05/26 00:21:54;;;;;;;40.67;37.08;;;;;;;16.47;100.00;101006.38;4991719;28;20487;-82
2022/05/26 00:24:23;;;;;;;42.13;38.30;;;;;;;16.63;100.00;101002.13;4995028;28;20554;-84
2022/05/26 00:26:50;;;;;;;42.78;39.08;;;;;;;16.44;100.00;100992.63;4994695;28;20050;-83
2022/05/26 00:29:22;;;;;;;44.95;41.13;;;;;;;16.39;100.00;100995.22;4995141;28;20054;-83
2022/05/26 00:31:49;;;;;;;42.92;39.33;;;;;;;16.32;100.00;100984.63;4995189;28;20062;-83
2022/05/26 00:37:15;;;;;;;40.25;36.80;;;;;;;16.30;100.00;100994.75;4993113;28;20054;-82
2022/05/26 00:39:44;;;;;;;39.38;35.97;;;;;;;16.57;100.00;100992.34;4994951;28;20062;-84
2022/05/26 00:42:11;;;;;;;39.58;36.17;;;;;;;16.66;100.00;100980.19;4994856;28;20050;-83
2022/05/26 00:44:38;;;;;;;38.58;35.15;;;;;;;16.69;100.00;100973.53;4994711;28;20054;-83
2022/05/26 00:47:10;;;;;;;43.13;39.63;;;;;;;16.75;100.00;100969.88;4994206;28;20053;-83
2022/05/26 00:49:47;;;;;;;42.00;38.60;;;;;;;16.92;100.00;100983.38;4991134;28;20158;-84
2022/05/26 00:52:23;;;;;;;38.47;35.22;;;;;;;17.02;100.00;100978.19;4995074;28;20046;-84
2022/05/26 00:54:56;;;;;;;40.15;36.75;;;;;;;17.07;100.00;100975.59;4994623;28;20050;-84
2022/05/26 00:57:35;;;;;;;39.30;36.00;;;;;;;16.62;100.00;100972.88;4994891;28;20081;-82
2022/05/26 01:00:15;;;;;;;36.58;33.55;;;;;;;17.02;100.00;100975.50;4994652;28;20050;-83
2022/05/26 01:02:50;;;;;;;36.25;33.05;;;;;;;17.09;100.00;100992.25;4994406;28;20447;-83
2022/05/26 01:05:27;;;;;;;36.20;33.08;;;;;;;17.11;100.00;100992.00;4991708;28;20061;-83
2022/05/26 01:07:58;;;;;;;39.03;35.80;;;;;;;16.98;100.00;100985.09;4994483;28;20155;-82
2022/05/26 01:10:30;;;;;;;42.63;39.35;;;;;;;16.93;100.00;100983.13;4994903;28;20053;-84
2022/05/26 01:13:02;;;;;;;47.50;43.30;;;;;;;16.93;100.00;100976.94;4994103;28;20056;-84
2022/05/26 01:15:36;;;;;;;48.60;43.90;;;;;;;16.95;100.00;100977.53;4994529;28;20418;-84
2022/05/26 01:18:23;;;;;;;52.22;46.45;;;;;;;17.08;100.00;100974.53;4990162;28;20050;-83
2022/05/26 01:21:07;;;;;;;50.58;45.60;;;;;;;17.06;100.00;100970.44;4990624;28;20060;-83
2022/05/26 01:24:20;;;;;;;52.20;46.85;;;;;;;17.01;100.00;100968.50;4991208;28;20046;-81
2022/05/26 01:27:17;;;;;;;54.27;47.47;;;;;;;17.13;100.00;100971.13;4992209;28;20490;-82
2022/05/26 01:30:28;;;;;;;49.17;43.85;;;;;;;17.16;100.00;100981.38;4989459;28;20078;-82
2022/05/26 01:33:25;;;;;;;53.83;47.03;;;;;;;17.03;100.00;100963.69;4993075;28;20125;-83
2022/05/26 01:36:05;;;;;;;56.80;50.80;;;;;;;17.08;100.00;100962.97;4991198;28;20552;-81
2022/05/26 01:38:44;;;;;;;59.42;50.55;;;;;;;16.95;100.00;100964.13;4990231;28;20042;-84
2022/05/26 01:41:33;;;;;;;58.42;50.88;;;;;;;16.99;100.00;100980.53;4990802;28;20054;-83
2022/05/26 01:47:04;;;;;;;58.13;50.17;;;;;;;17.08;100.00;100981.75;4994194;28;20073;-84
2022/05/26 01:49:46;;;;;;;58.88;49.35;;;;;;;16.91;100.00;100982.56;4994614;28;20050;-84
2022/05/26 01:52:18;;;;;;;59.33;50.53;;;;;;;16.94;100.00;100970.50;4994318;28;20133;-83
2022/05/26 01:54:56;;;;;;;60.83;50.30;;;;;;;16.97;100.00;100983.44;4989427;28;20046;-83
2022/05/26 01:57:28;;;;;;;61.72;55.17;;;;;;;16.93;100.00;100980.44;4994047;28;20058;-84
2022/05/26 01:59:56;;;;;;;;;;;;;;;17.02;100.00;100978.19;4994389;28;20074;-84
2022/05/26 02:02:25;;;;;;;59.55;53.03;;;;;;;17.06;100.00;100987.34;5112686;23;19944;-84
2022/05/26 02:05:00;;;;;;;61.55;53.08;;;;;;;16.41;100.00;100993.13;5032977;28;20469;-84
2022/05/26 02:07:32;;;;;;;62.65;55.90;;;;;;;16.54;100.00;100987.47;5029542;28;20142;-85
2022/05/26 02:10:03;;;;;;;62.58;52.55;;;;;;;16.36;100.00;101009.91;5028411;28;20132;-85
2022/05/26 02:12:35;;;;;;;64.05;54.03;;;;;;;16.90;100.00;100994.34;5031457;28;20147;-84
2022/05/26 02:15:07;;;;;;;65.13;58.25;;;;;;;16.97;100.00;101002.22;5032502;28;20049;-84
2022/05/26 02:17:40;;;;;;;64.63;56.20;;;;;;;17.07;100.00;100996.25;5028297;28;20480;-84
2022/05/26 02:20:13;;;;;;;62.47;54.08;;;;;;;16.63;100.00;100994.06;5032789;28;20453;-84
2022/05/26 02:22:49;;;;;;;59.55;51.45;;;;;;;16.49;100.00;101001.59;5033956;28;20057;-85
2022/05/26 02:25:22;;;;;;;61.63;52.30;;;;;;;16.65;100.00;101020.66;5031745;28;20046;-86
2022/05/26 02:27:53;;;;;;;63.08;53.47;;;;;;;16.45;100.00;101040.63;5029233;28;20045;-86
2022/05/26 02:30:23;;;;;;;57.95;49.83;;;;;;;16.37;100.00;101067.84;5023668;28;20046;-86
2022/05/26 02:32:54;;;;;;;61.08;52.45;;;;;;;16.39;100.00;101094.38;5023129;28;20046;-85
2022/05/26 02:35:26;;;;;;;59.30;51.20;;;;;;;16.42;100.00;101094.72;5027615;28;20498;-84
2022/05/26 02:38:11;;;;;;;57.35;48.97;;;;;;;16.54;100.00;101118.84;5019455;28;20519;-87
2022/05/26 02:40:38;;;;;;;61.92;50.97;;;;;;;16.72;100.00;101113.31;5033819;28;20136;-86
2022/05/26 02:43:14;;;;;;;58.47;48.42;;;;;;;17.03;100.00;101103.22;5018387;28;20123;-85
2022/05/26 02:45:56;;;;;;;60.10;52.95;;;;;;;16.83;100.00;101117.06;5034489;28;20049;-85
2022/05/26 02:48:55;;;;;;;62.33;52.53;;;;;;;17.14;100.00;101121.16;5037146;28;20077;-86
2022/05/26 02:51:38;;;;;;;39.63;36.45;;;;;;;16.74;100.00;101144.47;5017304;28;20056;-85
2022/05/26 02:54:19;;;;;;;37.10;34.38;;;;;;;16.96;100.00;101156.22;5017546;28;20076;-84
2022/05/26 02:56:57;;;;;;;35.00;32.30;;;;;;;17.24;100.00;101158.09;5025438;28;20528;-86
2022/05/26 02:59:32;;;;;;;36.88;34.05;;;;;;;17.21;100.00;101153.22;5029210;28;20057;-85
2022/05/26 03:02:15;;;;;;;35.33;32.42;;;;;;;17.11;100.00;101144.97;5034361;28;20045;-86
2022/05/26 03:05:04;;;;;;;35.72;32.45;;;;;;;17.08;100.00;101146.28;5033951;28;20128;-87
2022/05/26 03:07:53;;;;;;;38.35;35.10;;;;;;;17.16;100.00;101139.72;5020896;28;20081;-85
2022/05/26 03:10:30;;;;;;;41.28;38.17;;;;;;;16.89;100.00;101134.09;5036919;28;20053;-84
2022/05/26 03:12:59;;;;;;;40.50;37.60;;;;;;;16.62;100.00;101142.63;5036746;28;20053;-85
2022/05/26 03:15:27;;;;;;;41.67;38.60;;;;;;;16.65;100.00;101136.78;5036678;28;20053;-85
2022/05/26 03:18:09;;;;;;;40.42;37.10;;;;;;;16.84;100.00;101128.63;5033803;28;20053;-86
2022/05/26 03:20:43;;;;;;;40.58;37.00;;;;;;;16.86;100.00;101123.84;5027334;28;20049;-84
2022/05/26 03:23:13;;;;;;;41.92;38.83;;;;;;;16.96;100.00;101110.63;5017266;28;20050;-87
2022/05/26 03:25:45;;;;;;;41.53;38.40;;;;;;;17.11;100.00;101128.88;5030271;28;20064;-85
2022/05/26 03:28:14;;;;;;;39.75;36.83;;;;;;;17.14;100.00;101125.72;5031582;28;20057;-85
2022/05/26 03:30:42;;;;;;;38.78;35.95;;;;;;;17.02;100.00;101133.81;5034926;28;20045;-86
2022/05/26 03:33:19;;;;;;;45.65;41.97;;;;;;;17.06;100.00;101137.63;5034319;28;20045;-86
2022/05/26 03:41:36;;;;;;;39.45;36.08;;;;;;;17.52;100.00;101160.00;5024933;28;20160;-87
2022/05/26 03:44:09;;;;;;;45.28;41.90;;;;;;;17.67;100.00;101155.91;5028777;28;20473;-85
2022/05/26 03:46:38;;;;;;;55.97;51.67;;;;;;;17.65;100.00;101158.88;5032932;28;20049;-86
2022/05/26 03:49:41;;;;;;;62.13;56.50;;;;;;;17.68;100.00;101152.19;5032300;28;20147;-87
2022/05/26 03:52:22;;;;;;;55.80;50.10;;;;;;;17.73;100.00;101158.47;5027548;28;20057;-89
2022/05/26 03:54:51;;;;;;;44.53;40.95;;;;;;;17.63;100.00;101156.41;5024438;28;20428;-87
2022/05/26 03:57:30;;;;;;;39.45;36.25;;;;;;;17.69;100.00;101157.31;5028178;28;20061;-85
2022/05/26 04:00:12;;;;;;;39.38;36.17;;;;;;;17.68;100.00;101150.31;5035225;28;20120;-87
2022/05/26 04:02:40;;;;;;;37.00;34.03;;;;;;;17.36;100.00;101163.44;5023247;28;20542;-89
2022/05/26 04:05:22;;;;;;;38.13;35.13;;;;;;;17.55;100.00;101164.03;5026757;28;20053;-89
2022/05/26 04:07:58;;;;;;;39.42;36.30;;;;;;;18.00;100.00;101165.91;5033130;28;20072;-88
2022/05/26 04:10:28;;;;;;;40.15;37.35;;;;;;;18.70;100.00;101167.22;5032494;28;20046;-86
2022/05/26 04:12:58;;;;;;;37.47;34.75;;;;;;;19.16;100.00;101148.97;5035573;28;20050;-89
2022/05/26 04:15:36;;;;;;;38.83;36.20;;;;;;;20.31;100.00;101145.94;5033840;28;20118;-87
2022/05/26 04:18:06;;;;;;;43.05;40.53;;;;;;;19.10;100.00;101160.75;5031629;28;20096;-84
2022/05/26 04:21:16;;;;;;;42.60;39.75;;;;;;;18.39;100.00;101168.66;5038660;28;20045;-87
2022/05/26 04:23:44;;;;;;;39.67;36.67;;;;;;;18.26;100.00;101191.31;5024546;28;20056;-85
2022/05/26 04:26:16;;;;;;;43.58;40.50;;;;;;;18.19;100.00;101188.00;5040985;28;20042;-87
2022/05/26 04:28:52;;;;;;;42.15;39.15;;;;;;;18.41;100.00;101193.44;5038991;28;20065;-86
2022/05/26 04:31:19;;;;;;;45.42;42.15;;;;;;;18.51;100.00;101189.00;5035852;28;20057;-85
2022/05/26 04:33:53;;;;;;;44.72;41.38;;;;;;;18.62;100.00;101186.47;5032918;28;20063;-86
2022/05/26 04:36:26;;;;;;;43.38;39.88;;;;;;;18.66;100.00;101179.53;5033617;28;20109;-85
2022/05/26 04:39:20;;;;;;;40.33;37.10;;;;;;;18.58;100.00;101180.78;5038291;28;20049;-85
2022/05/26 04:41:59;;;;;;;39.30;35.85;;;;;;;18.71;100.00;101171.53;5019198;28;20057;-85
2022/05/26 04:44:32;;;;;;;41.00;37.22;;;;;;;18.79;100.00;101181.06;5029032;28;20493;-85
2022/05/26 04:47:06;;;;;;;40.35;37.22;;;;;;;18.88;100.00;101183.09;5035981;28;20049;-84
2022/05/26 04:49:42;;;;;;;40.53;37.35;;;;;;;18.94;100.00;101175.88;5035372;28;20485;-88
2022/05/26 04:52:21;;;;;;;41.92;38.83;;;;;;;19.01;100.00;101173.84;5026277;28;20065;-87
2022/05/26 04:54:52;;;;;;;43.88;40.67;;;;;;;19.17;100.00;101178.31;5034665;28;20056;-85
2022/05/26 04:57:28;;;;;;;41.00;37.63;;;;;;;19.14;100.00;101168.06;5038897;28;20119;-86
2022/05/26 04:59:56;;;;;;;42.28;39.08;;;;;;;19.17;100.00;101174.81;5042750;28;20045;-86
2022/05/26 05:02:25;;;;;;;39.15;36.25;;;;;;;19.02;100.00;101174.63;5036269;28;20046;-85
2022/05/26 05:04:53;;;;;;;43.40;40.08;;;;;;;19.27;100.00;101171.41;5040771;28;20045;-86
2022/05/26 05:07:23;;;;;;;42.22;39.08;;;;;;;19.34;100.00;101167.47;5038439;28;20091;-86
2022/05/26 05:09:52;;;;;;;37.38;34.45;;;;;;;19.41;100.00;101169.97;5040372;28;20203;-85
2022/05/26 05:12:24;;;;;;;40.72;37.65;;;;;;;19.49;100.00;101169.50;5032820;28;20049;-86
2022/05/26 05:14:56;;;;;;;38.78;35.65;;;;;;;19.64;100.00;101166.16;5029728;28;20653;-87
2022/05/26 05:17:24;;;;;;;39.65;36.65;;;;;;;19.83;100.00;101158.53;5036508;28;20068;-88
2022/05/26 05:19:53;;;;;;;41.65;38.08;;;;;;;19.91;100.00;101155.38;5037292;28;20038;-87
2022/05/26 05:22:26;;;;;;;38.03;35.10;;;;;;;19.92;100.00;101151.59;5038402;28;20124;-87
2022/05/26 05:24:58;;;;;;;37.95;35.00;;;;;;;20.16;100.00;101168.22;5037500;28;20134;-86
2022/05/26 05:27:32;;;;;;;36.72;33.97;;;;;;;20.22;100.00;101167.19;5034848;28;20405;-85
2022/05/26 05:30:04;;;;;;;37.17;34.30;;;;;;;20.40;100.00;101175.94;5037007;28;20057;-88
2022/05/26 05:32:41;;;;;;;37.38;34.15;;;;;;;20.46;100.00;101167.63;5030803;28;20080;-85
2022/05/26 05:35:17;;;;;;;36.28;33.45;;;;;;;20.58;100.00;101170.16;5036907;28;20140;-85
2022/05/26 05:37:50;;;;;;;37.60;34.30;;;;;;;20.70;100.00;101175.34;5036708;28;20069;-88
2022/05/26 05:40:21;;;;;;;39.70;36.20;;;;;;;20.68;100.00;101172.06;5034607;28;20072;-85
2022/05/26 05:42:57;;;;;;;43.40;39.95;;;;;;;20.94;100.00;101181.94;5027256;28;20049;-84
2022/05/26 05:45:39;;;;;;;40.60;37.38;;;;;;;21.07;100.00;101191.41;5028214;28;20065;-87
2022/05/26 05:48:08;;;;;;;40.65;37.40;;;;;;;21.07;100.00;101191.41;5032627;28;20077;-84
2022/05/26 05:50:39;;;;;;;38.47;35.58;;;;;;;21.32;100.00;101195.28;5031198;28;20463;-85
2022/05/26 05:53:07;;;;;;;36.72;34.22;;;;;;;21.40;100.00;101200.19;5038921;28;20094;-86
2022/05/26 05:55:36;;;;;;;36.47;33.72;;;;;;;21.50;100.00;101192.91;5034136;28;20462;-84
2022/05/26 05:58:11;;;;;;;37.13;34.42;;;;;;;21.52;100.00;101191.84;5034239;28;20473;-86
2022/05/26 06:00:47;;;;;;;37.47;34.63;;;;;;;21.76;100.00;101192.97;5023574;28;20203;-85
2022/05/26 06:03:22;;;;;;;38.55;35.90;;;;;;;21.84;100.00;101186.19;4998959;28;20057;-86
2022/05/26 06:05:55;;;;;;;35.47;32.83;;;;;;;21.92;100.00;101188.38;4994013;28;20065;-85
2022/05/26 06:08:22;;;;;;;36.45;33.92;;;;;;;22.08;100.00;101183.75;4994711;28;20054;-85
2022/05/26 06:10:53;;;;;;;38.78;35.95;;;;;;;22.37;100.00;101184.84;4999550;28;20042;-85
2022/05/26 06:13:23;;;;;;;36.08;33.25;;;;;;;22.52;100.00;101199.44;4995757;28;20050;-87
2022/05/26 06:15:52;;;;;;;34.97;32.67;;;;;;;22.41;100.00;101198.63;4997606;28;20050;-86
2022/05/26 06:18:38;;;;;;;35.63;33.03;;;;;;;22.78;100.00;101200.97;4995335;28;20050;-85
2022/05/26 06:21:15;;;;;;;33.33;30.90;;;;;;;22.70;100.00;101206.97;4990139;28;20058;-88
2022/05/26 06:23:46;;;;;;;33.17;31.00;;;;;;;22.76;100.00;101203.16;4998727;28;20069;-86
2022/05/26 06:26:35;;;;;;;35.08;32.67;;;;;;;22.95;100.00;101197.97;4997760;28;20046;-86
2022/05/26 06:37:53;;;;;;;37.03;34.67;;;;;;;23.70;100.00;101216.03;4983996;28;20085;-86
2022/05/26 06:40:28;;;;;;;36.83;33.85;;;;;;;23.80;100.00;101215.16;4980527;28;20050;-86
2022/05/26 06:42:56;;;;;;;35.72;33.53;;;;;;;23.89;100.00;101213.44;4992434;28;20137;-85
2022/05/26 06:45:26;;;;;;;38.90;36.40;;;;;;;24.08;100.00;101218.97;4990435;28;20057;-86
2022/05/26 06:47:59;;;;;;;39.85;37.08;;;;;;;24.36;100.00;101215.47;4993231;28;20058;-86
2022/05/26 06:50:35;;;;;;;42.90;39.72;;;;;;;24.47;100.00;101213.50;4991864;28;20498;-88
2022/05/26 06:53:02;;;;;;;38.28;35.75;;;;;;;24.40;100.00;101218.44;4993928;28;20109;-85
2022/05/26 06:55:35;;;;;;;36.42;34.13;;;;;;;24.53;100.00;101208.81;4991832;28;20058;-85
2022/05/26 06:58:04;;;;;;;35.15;32.75;;;;;;;24.77;100.00;101222.41;4976130;28;20050;-86
2022/05/26 07:00:31;;;;;;;34.58;32.35;;;;;;;24.77;100.00;101212.34;4988031;28;20471;-86
2022/05/26 07:03:03;;;;;;;33.92;31.60;;;;;;;24.51;100.00;101219.16;5029577;28;20053;-85
2022/05/26 07:05:30;;;;;;;31.95;29.58;;;;;;;24.20;100.00;101214.00;5021786;28;20041;-86
2022/05/26 07:08:00;;;;;;;32.35;30.10;;;;;;;24.41;100.00;101196.41;5032989;28;20083;-87
2022/05/26 07:10:34;;;;;;;31.10;28.75;;;;;;;24.60;100.00;101217.41;5033449;28;20049;-85
2022/05/26 07:13:01;;;;;;;30.02;27.95;;;;;;;24.50;100.00;101221.06;5032698;28;20111;-86
2022/05/26 07:15:28;;;;;;;30.05;28.13;;;;;;;24.22;100.00;101231.59;5030457;28;20437;-85
2022/05/26 07:18:07;;;;;;;28.85;27.05;;;;;;;24.07;100.00;101231.75;5032591;28;20068;-87
2022/05/26 07:20:36;;;;;;;28.17;26.58;;;;;;;23.99;100.00;101240.47;5032334;28;20123;-85
2022/05/26 07:23:06;;;;;;;30.52;28.50;;;;;;;23.81;100.00;101239.25;5036158;28;20425;-85
2022/05/26 07:25:46;;;;;;;29.00;27.20;;;;;;;23.99;100.00;101235.88;5036719;28;20045;-86
2022/05/26 07:28:13;;;;;;;29.50;27.50;;;;;;;24.41;100.00;101242.56;5033101;28;20053;-87
2022/05/26 07:30:43;;;;;;;32.20;30.30;;;;;;;24.34;100.00;101242.09;5035673;28;20050;-87
2022/05/26 07:33:11;;;;;;;32.13;29.90;;;;;;;23.94;100.00;101243.25;5032294;28;20050;-87
2022/05/26 07:35:38;;;;;;;31.50;29.67;;;;;;;25.07;100.00;101240.25;5030464;28;20053;-88
2022/05/26 07:43:35;;;;;;;31.15;29.35;;;;;;;25.15;100.00;101247.81;5033608;28;20052;-85
2022/05/26 07:46:02;;;;;;;32.22;30.02;;;;;;;24.89;100.00;101242.63;5036036;28;20049;-86
2022/05/26 07:48:33;;;;;;;31.27;29.45;;;;;;;24.43;100.00;101234.97;5035643;28;20063;-87
2022/05/26 07:51:01;;;;;;;31.92;29.98;;;;;;;24.48;100.00;101244.16;5033840;28;20053;-86
2022/05/26 07:53:34;;;;;;;30.92;29.08;;;;;;;25.10;100.00;101245.13;5033980;28;20095;-86
2022/05/26 07:56:10;;;;;;;31.27;29.38;;;;;;;25.79;100.00;101245.56;5038682;28;20080;-88
2022/05/26 07:58:50;;;;;;;632.10;163.98;;;;;;;25.38;100.00;101242.59;5044178;28;20053;-87
2022/05/26 08:01:18;;;;;;;31.83;29.85;;;;;;;25.94;100.00;101248.06;5033756;28;20065;-86
2022/05/26 08:03:46;;;;;;;29.50;27.75;;;;;;;25.81;100.00;101246.09;5037713;28;20140;-88
2022/05/26 08:06:20;;;;;;;29.77;27.67;;;;;;;25.69;100.00;101251.97;5033343;28;20050;-86
2022/05/26 08:08:57;;;;;;;29.60;27.48;;;;;;;25.66;100.00;101259.88;5036099;28;20123;-86
2022/05/26 08:11:25;;;;;;;30.98;28.58;;;;;;;26.02;100.00;101249.28;5036052;28;20115;-87
2022/05/26 08:13:58;;;;;;;31.55;29.52;;;;;;;25.67;100.00;101256.06;5018844;28;20057;-86
2022/05/26 08:16:28;;;;;;;29.67;27.58;;;;;;;25.51;100.00;101252.78;5033036;28;20040;-88
2022/05/26 08:18:57;;;;;;;30.73;28.50;;;;;;;25.86;100.00;101254.19;5022919;28;20059;-86
2022/05/26 08:21:26;;;;;;;29.25;27.05;;;;;;;25.64;100.00;101256.66;5052830;28;20049;-88
2022/05/26 08:24:13;;;;;;;30.65;28.50;;;;;;;25.51;100.00;101263.66;5054778;28;20107;-88
2022/05/26 08:26:58;;;;;;;29.75;27.55;;;;;;;25.30;100.00;101261.19;5027953;28;20508;-88
2022/05/26 08:29:47;;;;;;;31.10;28.80;;;;;;;26.14;100.00;101265.16;5026808;28;20049;-88
2022/05/26 08:32:16;;;;;;;31.52;29.42;;;;;;;26.13;100.00;101256.19;5044860;28;20049;-87
2022/05/26 08:34:47;;;;;;;31.77;29.35;;;;;;;26.00;100.00;101265.13;5041794;28;20069;-87
2022/05/26 08:37:32;;;;;;;30.65;28.60;;;;;;;25.91;100.00;101269.63;5043282;28;20133;-87
2022/05/26 08:40:34;;;;;;;;;;;;;;;;;;;;;
2022/05/26 08:43:27;;;;;;;29.80;28.00;;;;;;;25.51;100.00;101277.25;5045090;28;20109;-87
2022/05/26 08:46:08;;;;;;;29.77;27.80;;;;;;;25.62;100.00;101283.34;5037477;28;20060;-87
2022/05/26 08:48:56;;;;;;;29.23;27.48;;;;;;;25.65;100.00;101286.28;5024454;28;20057;-89
2022/05/26 08:51:44;;;;;;;29.50;27.80;;;;;;;24.54;100.00;101281.84;5038085;28;20061;-86
2022/05/26 08:54:23;;;;;;;29.55;27.60;;;;;;;25.76;100.00;101292.41;5040491;28;20041;-88
2022/05/26 08:57:20;;;;;;;28.45;26.65;;;;;;;24.81;100.00;101288.63;5037200;28;20096;-89
2022/05/26 09:00:13;;;;;;;28.83;26.67;;;;;;;26.04;100.00;101288.72;5022507;28;20061;-88
2022/05/26 09:02:45;;;;;;;28.50;26.60;;;;;;;26.18;100.00;101294.22;5036607;28;20080;-88
2022/05/26 09:05:18;;;;;;;29.52;27.52;;;;;;;26.26;100.00;101290.84;5027114;28;20041;-90
2022/05/26 09:13:39;;;;;;;27.73;25.95;;;;;;;25.68;100.00;101287.59;5021413;28;20199;-87
2022/05/26 09:16:09;;;;;;;29.23;27.23;;;;;;;26.64;100.00;101289.94;5040962;28;20456;-89
2022/05/26 09:18:44;;;;;;;30.80;28.15;;;;;;;27.46;100.00;101288.34;5022238;28;20140;-89
2022/05/26 09:21:22;;;;;;;57.78;32.92;;;;;;;26.91;100.00;101289.97;5033952;28;20049;-87
2022/05/26 09:24:17;;;;;;;28.50;26.73;;;;;;;26.50;100.00;101279.00;5029210;28;20078;-88
2022/05/26 09:26:58;;;;;;;33.25;31.17;;;;;;;27.31;100.00;101284.81;5025690;28;20056;-90
2022/05/26 09:29:46;;;;;;;32.42;30.25;;;;;;;27.01;100.00;101280.78;5055323;28;20049;-87
2022/05/26 09:32:31;;;;;;;28.90;27.15;;;;;;;25.58;100.00;101286.66;5022901;28;20081;-87
2022/05/26 09:35:23;;;;;;;32.97;29.42;;;;;;;26.76;100.00;101276.63;5026962;28;20053;-88
2022/05/26 09:37:55;;;;;;;72.53;30.73;;;;;;;25.43;100.00;101281.41;5026734;28;20105;-88
2022/05/26 09:40:40;;;;;;;28.53;26.67;;;;;;;25.74;100.00;101281.00;5038488;28;20060;-87
2022/05/26 09:43:36;;;;;;;;;;;;;;;;;;;;;
2022/05/26 09:46:27;;;;;;;31.38;29.42;;;;;;;25.45;100.00;101286.56;5037772;28;20046;-88
2022/05/26 09:49:31;;;;;;;30.30;28.42;;;;;;;26.66;100.00;101282.28;5040103;28;20404;-89
2022/05/26 09:52:18;;;;;;;29.05;27.45;;;;;;;25.26;100.00;101275.66;5029204;28;20049;-89
2022/05/26 09:54:49;;;;;;;30.20;28.30;;;;;;;26.84;100.00;101275.94;5019311;28;20459;-87
2022/05/26 09:57:28;;;;;;;29.17;27.17;;;;;;;25.99;100.00;101277.94;5026218;28;20045;-88
2022/05/26 10:00:20;;;;;;;30.67;29.08;;;;;;;26.29;100.00;101275.78;5032202;28;20057;-88
2022/05/26 10:02:51;;;;;;;29.92;27.83;;;;;;;26.40;100.00;101274.53;5034445;28;20093;-83
2022/05/26 10:05:31;;;;;;;29.20;27.33;;;;;;;26.39;100.00;101281.09;5038422;28;20053;-87
2022/05/26 10:08:07;;;;;;;32.72;30.73;;;;;;;26.87;100.00;101271.78;5047469;28;20059;-87
2022/05/26 10:10:43;;;;;;;35.22;32.72;;;;;;;27.68;100.00;101272.00;5021560;28;20095;-87
2022/05/26 10:13:40;;;;;;;34.58;32.13;;;;;;;27.08;100.00;101266.72;5036334;28;20115;-87
2022/05/26 10:16:57;;;;;;;33.45;31.42;;;;;;;27.93;100.00;101278.00;5016074;28;20062;-88
2022/05/26 10:19:37;;;;;;;35.38;33.00;;;;;;;27.42;100.00;101269.06;5018449;28;20115;-88
2022/05/26 10:22:33;;;;;;;35.22;32.83;;;;;;;27.67;100.00;101273.13;5026362;28;20116;-85
2022/05/26 10:25:09;;;;;;;36.13;33.90;;;;;;;27.84;100.00;101259.66;5032353;28;20049;-86
2022/05/26 10:28:03;;;;;;;33.58;31.60;;;;;;;27.96;95.22;101255.56;5029692;28;20057;-84
2022/05/26 10:30:48;;;;;;;34.00;32.08;;;;;;;27.84;100.00;101265.13;5030116;28;20470;-87
2022/05/26 10:33:37;;;;;;;40.15;37.38;;;;;;;27.21;100.00;101254.25;5035412;28;20448;-87
2022/05/26 10:36:31;;;;;;;36.55;34.17;;;;;;;27.70;100.00;101255.34;5015705;28;20050;-86
2022/05/26 10:39:17;;;;;;;39.00;36.13;;;;;;;27.12;100.00;101251.41;5018868;28;20060;-86
2022/05/26 10:41:48;;;;;;;35.67;33.22;;;;;;;28.11;100.00;101243.47;5023322;28;20434;-86
2022/05/26 10:44:26;;;;;;;36.80;34.38;;;;;;;27.80;100.00;101255.13;5029626;28;20045;-85
2022/05/26 10:47:33;;;;;;;33.10;31.08;;;;;;;27.95;97.27;101248.50;5045269;28;20107;-85
2022/05/26 10:50:15;;;;;;;35.00;32.80;;;;;;;27.09;100.00;101252.00;5014792;28;20054;-86
2022/05/26 10:52:55;;;;;;;33.85;31.25;;;;;;;27.11;100.00;101234.25;5022263;28;20084;-86
2022/05/26 10:55:53;;;;;;;32.28;30.17;;;;;;;26.79;100.00;101232.44;5035052;28;20452;-89
2022/05/26 10:58:27;;;;;;;31.88;29.52;;;;;;;28.33;98.99;101235.25;5036808;28;20045;-88
2022/05/26 11:01:09;;;;;;;29.73;27.70;;;;;;;27.59;100.00;101233.75;5046924;28;20060;-88
2022/05/26 11:03:42;;;;;;;31.38;29.60;;;;;;;28.72;100.00;101228.22;5003832;28;20121;-89
2022/05/26 11:06:25;;;;;;;;;;;;;;;28.74;94.44;101223.22;5005541;28;20057;-89
2022/05/26 11:09:00;;;;;;;31.88;29.77;;;;;;;28.95;94.71;101220.72;5002143;28;19930;-88
2022/05/26 11:11:37;;;;;;;31.40;29.15;;;;;;;28.52;97.80;101222.19;5002787;28;20050;-88
2022/05/26 11:17:21;;;;;;;30.23;28.33;;;;;;;27.88;91.14;101224.38;4997046;28;20476;-87
2022/05/26 11:17:28;;;;;;;;;;;;;;;27.41;100.00;101229.25;4988589;28;20133;-87
2022/05/26 11:20:04;;;;;;;29.38;27.38;;;;;;;28.21;94.51;101215.91;5007697;28;19922;-87
2022/05/26 11:22:31;;;;;;;31.38;29.38;;;;;;;28.54;95.20;101213.69;4993957;28;20051;-88
2022/05/26 11:25:10;;;;;;;30.05;28.20;;;;;;;27.59;92.26;101213.84;4996994;28;20133;-88
2022/05/26 11:27:52;;;;;;;32.10;29.98;;;;;;;27.37;100.00;101209.97;4990261;28;20054;-88
2022/05/26 11:36:47;;;;;;;28.67;27.05;;;;;;;27.03;97.92;101196.00;4998163;28;20057;-89
2022/05/26 11:39:47;;;;;;;30.40;28.70;;;;;;;26.46;100.00;101190.81;4991477;28;20051;-88
2022/05/26 11:42:31;;;;;;;30.23;28.42;;;;;;;28.70;76.79;101198.47;4993998;28;20054;-87
2022/05/26 11:45:49;;;;;;;30.92;28.95;;;;;;;26.94;93.17;101196.69;4998450;28;20046;-87
2022/05/26 11:48:46;;;;;;;29.48;27.50;;;;;;;27.14;96.53;101190.03;4923352;29;20056;-88
2022/05/26 11:51:40;;;;;;;29.00;26.95;;;;;;;26.69;96.79;101187.13;4937714;29;20928;-87
2022/05/26 11:54:31;;;;;;;29.08;27.05;;;;;;;25.86;100.00;101188.88;4990026;28;20102;-87
2022/05/26 11:57:00;;;;;;;29.60;27.70;;;;;;;26.99;98.89;101186.78;4991713;28;20047;-86
2022/05/26 11:59:46;;;;;;;30.02;28.08;;;;;;;28.94;81.13;101176.19;4986612;28;20491;-88
2022/05/26 12:02:32;;;;;;;28.65;26.70;;;;;;;28.18;84.10;101181.03;5005882;28;20076;-87
2022/05/26 12:05:39;;;;;;;28.75;26.90;;;;;;;27.71;97.15;101177.81;5033343;28;20501;-87
2022/05/26 12:08:23;;;;;;;29.80;27.80;;;;;;;27.78;94.11;101168.13;5033551;28;20077;-86
2022/05/26 12:10:56;;;;;;;30.85;28.58;;;;;;;26.92;95.89;101166.22;5019152;28;20058;-86
2022/05/26 12:13:28;;;;;;;30.75;28.65;;;;;;;26.84;100.00;101160.66;5032586;28;20064;-85
2022/05/26 12:16:25;;;;;;;29.50;27.60;;;;;;;26.78;95.70;101167.34;5040111;28;20470;-87
2022/05/26 12:19:35;;;;;;;27.83;26.00;;;;;;;27.94;86.55;101154.91;5031333;28;20508;-86
2022/05/26 12:22:23;;;;;;;28.20;26.17;;;;;;;28.99;75.18;101153.38;5028428;28;20529;-86
2022/05/26 12:25:31;;;;;;;28.10;26.40;;;;;;;28.94;75.80;101157.03;5034370;28;20433;-87
2022/05/26 12:28:03;;;;;;;28.60;26.88;;;;;;;28.68;74.99;101151.53;5028433;28;20492;-88
2022/05/26 12:30:36;;;;;;;27.88;25.90;;;;;;;28.95;73.17;101152.38;5035774;28;20042;-86
2022/05/26 12:33:09;;;;;;;;;;;;;;;28.74;73.40;101149.44;5033119;28;20119;-88